sensor_id;sensor_type;location;lat;lon;timestamp;P1;durP1;ratioP1;P2;durP2;ratioP2
38435;SDS011;24220;48.168;14.024;2023-03-14T00:01:51;9.15;;;7.32;;
38435;SDS011;24220;48.168;14.024;2023-03-14T00:04:23;10.80;;;7.45;;
38435;SDS011;24220;48.168;14.024;2023-03-14T00:06:54;11.68;;;8.10;;
38435;SDS011;24220;48.168;14.024;2023-03-14T00:09:26;9.63;;;7.72;;
38435;SDS011;24220;48.168;14.024;2023-03-14T00:11:59;11.85;;;8.10;;
38435;SDS011;24220;48.168;14.024;2023-03-14T00:16:59;12.55;;;7.70;;
38435;SDS011;24220;48.168;14.024;2023-03-14T00:19:30;12.00;;;8.57;;
38435;SDS011;24220;48.168;14.024;2023-03-14T00:22:00;13.85;;;8.50;;
38435;SDS011;24220;48.168;14.024;2023-03-14T00:24:30;18.60;;;9.70;;
38435;SDS011;24220;48.168;14.024;2023-03-14T00:27:00;15.50;;;8.95;;
38435;SDS011;24220;48.168;14.024;2023-03-14T00:29:30;11.90;;;8.88;;
38435;SDS011;24220;48.168;14.024;2023-03-14T00:32:01;11.73;;;8.07;;
38435;SDS011;24220;48.168;14.024;2023-03-14T00:34:30;10.48;;;7.68;;
38435;SDS011;24220;48.168;14.024;2023-03-14T00:37:00;13.90;;;7.03;;
38435;SDS011;24220;48.168;14.024;2023-03-14T00:39:31;12.95;;;6.28;;
38435;SDS011;24220;48.168;14.024;2023-03-14T00:42:05;7.40;;;5.72;;
38435;SDS011;24220;48.168;14.024;2023-03-14T00:44:33;7.18;;;5.55;;
38435;SDS011;24220;48.168;14.024;2023-03-14T00:47:01;6.43;;;5.15;;
38435;SDS011;24220;48.168;14.024;2023-03-14T00:49:32;9.03;;;5.30;;
38435;SDS011;24220;48.168;14.024;2023-03-14T00:52:00;7.30;;;4.60;;
38435;SDS011;24220;48.168;14.024;2023-03-14T00:54:28;7.18;;;4.82;;
38435;SDS011;24220;48.168;14.024;2023-03-14T00:57:06;5.72;;;4.25;;
38435;SDS011;24220;48.168;14.024;2023-03-14T00:59:34;5.95;;;4.00;;
38435;SDS011;24220;48.168;14.024;2023-03-14T01:02:05;5.28;;;4.40;;
38435;SDS011;24220;48.168;14.024;2023-03-14T01:04:41;5.38;;;4.28;;
38435;SDS011;24220;48.168;14.024;2023-03-14T01:07:10;6.88;;;4.32;;
38435;SDS011;24220;48.168;14.024;2023-03-14T01:09:45;6.18;;;4.72;;
38435;SDS011;24220;48.168;14.024;2023-03-14T01:12:16;7.40;;;5.50;;
38435;SDS011;24220;48.168;14.024;2023-03-14T01:14:46;7.80;;;5.40;;
38435;SDS011;24220;48.168;14.024;2023-03-14T01:17:16;9.98;;;5.60;;
38435;SDS011;24220;48.168;14.024;2023-03-14T01:19:51;8.02;;;5.57;;
38435;SDS011;24220;48.168;14.024;2023-03-14T01:22:23;6.43;;;4.95;;
38435;SDS011;24220;48.168;14.024;2023-03-14T01:24:53;7.97;;;5.03;;
38435;SDS011;24220;48.168;14.024;2023-03-14T01:27:25;6.47;;;4.75;;
38435;SDS011;24220;48.168;14.024;2023-03-14T01:29:59;6.65;;;4.70;;
38435;SDS011;24220;48.168;14.024;2023-03-14T01:32:29;6.10;;;4.45;;
38435;SDS011;24220;48.168;14.024;2023-03-14T01:35:05;6.10;;;4.47;;
38435;SDS011;24220;48.168;14.024;2023-03-14T01:37:38;5.88;;;4.55;;
38435;SDS011;24220;48.168;14.024;2023-03-14T01:40:10;5.82;;;4.22;;
38435;SDS011;24220;48.168;14.024;2023-03-14T01:42:46;5.10;;;4.13;;
38435;SDS011;24220;48.168;14.024;2023-03-14T01:48:16;6.13;;;4.22;;
38435;SDS011;24220;48.168;14.024;2023-03-14T01:50:43;6.28;;;4.60;;
38435;SDS011;24220;48.168;14.024;2023-03-14T01:53:13;6.93;;;4.30;;
38435;SDS011;24220;48.168;14.024;2023-03-14T01:55:44;4.20;;;3.63;;
38435;SDS011;24220;48.168;14.024;2023-03-14T02:00:47;5.05;;;3.92;;
38435;SDS011;24220;48.168;14.024;2023-03-14T02:03:17;5.38;;;4.05;;
38435;SDS011;24220;48.168;14.024;2023-03-14T02:05:48;5.03;;;3.78;;
38435;SDS011;24220;48.168;14.024;2023-03-14T02:08:25;5.30;;;3.67;;
38435;SDS011;24220;48.168;14.024;2023-03-14T02:10:57;4.75;;;3.83;;
38435;SDS011;24220;48.168;14.024;2023-03-14T02:13:30;5.55;;;4.90;;
38435;SDS011;24220;48.168;14.024;2023-03-14T02:16:00;4.95;;;3.97;;
38435;SDS011;24220;48.168;14.024;2023-03-14T02:18:27;5.75;;;3.92;;
38435;SDS011;24220;48.168;14.024;2023-03-14T02:21:03;5.35;;;3.72;;
38435;SDS011;24220;48.168;14.024;2023-03-14T02:26:31;4.43;;;3.80;;
38435;SDS011;24220;48.168;14.024;2023-03-14T02:29:04;3.83;;;3.08;;
38435;SDS011;24220;48.168;14.024;2023-03-14T02:31:39;4.47;;;3.08;;
38435;SDS011;24220;48.168;14.024;2023-03-14T02:34:12;3.65;;;3.35;;
38435;SDS011;24220;48.168;14.024;2023-03-14T02:36:39;4.95;;;3.47;;
38435;SDS011;24220;48.168;14.024;2023-03-14T02:39:23;4.35;;;2.88;;
38435;SDS011;24220;48.168;14.024;2023-03-14T02:42:00;4.20;;;3.25;;
38435;SDS011;24220;48.168;14.024;2023-03-14T02:44:29;6.35;;;3.53;;
38435;SDS011;24220;48.168;14.024;2023-03-14T02:46:57;6.82;;;3.72;;
38435;SDS011;24220;48.168;14.024;2023-03-14T02:49:28;6.77;;;4.70;;
38435;SDS011;24220;48.168;14.024;2023-03-14T02:52:01;4.40;;;3.72;;
38435;SDS011;24220;48.168;14.024;2023-03-14T02:54:35;7.00;;;3.78;;
38435;SDS011;24220;48.168;14.024;2023-03-14T02:57:02;6.55;;;3.85;;
38435;SDS011;24220;48.168;14.024;2023-03-14T02:59:32;6.07;;;4.05;;
38435;SDS011;24220;48.168;14.024;2023-03-14T03:01:59;6.30;;;4.10;;
38435;SDS011;24220;48.168;14.024;2023-03-14T03:04:27;5.85;;;3.78;;
38435;SDS011;24220;48.168;14.024;2023-03-14T03:06:54;4.85;;;3.65;;
38435;SDS011;24220;48.168;14.024;2023-03-14T03:09:30;4.53;;;3.35;;
38435;SDS011;24220;48.168;14.024;2023-03-14T03:12:03;5.97;;;3.85;;
38435;SDS011;24220;48.168;14.024;2023-03-14T03:14:38;4.78;;;3.50;;
38435;SDS011;24220;48.168;14.024;2023-03-14T03:17:06;5.68;;;3.53;;
38435;SDS011;24220;48.168;14.024;2023-03-14T03:19:44;5.60;;;3.28;;
38435;SDS011;24220;48.168;14.024;2023-03-14T03:22:28;7.35;;;3.85;;
38435;SDS011;24220;48.168;14.024;2023-03-14T03:25:02;5.80;;;3.75;;
38435;SDS011;24220;48.168;14.024;2023-03-14T03:27:31;3.20;;;2.58;;
38435;SDS011;24220;48.168;14.024;2023-03-14T03:30:00;4.82;;;2.70;;
38435;SDS011;24220;48.168;14.024;2023-03-14T03:32:28;5.85;;;2.70;;
38435;SDS011;24220;48.168;14.024;2023-03-14T03:34:55;3.75;;;2.83;;
38435;SDS011;24220;48.168;14.024;2023-03-14T03:37:30;3.50;;;2.53;;
38435;SDS011;24220;48.168;14.024;2023-03-14T03:40:00;3.42;;;2.22;;
38435;SDS011;24220;48.168;14.024;2023-03-14T03:42:35;3.33;;;2.80;;
38435;SDS011;24220;48.168;14.024;2023-03-14T03:45:06;4.85;;;2.60;;
38435;SDS011;24220;48.168;14.024;2023-03-14T03:47:39;3.80;;;2.60;;
38435;SDS011;24220;48.168;14.024;2023-03-14T03:50:09;2.80;;;2.38;;
38435;SDS011;24220;48.168;14.024;2023-03-14T03:52:43;3.42;;;2.38;;
38435;SDS011;24220;48.168;14.024;2023-03-14T03:55:17;6.30;;;2.78;;
38435;SDS011;24220;48.168;14.024;2023-03-14T03:57:45;3.28;;;2.58;;
38435;SDS011;24220;48.168;14.024;2023-03-14T04:00:14;3.10;;;2.55;;
38435;SDS011;24220;48.168;14.024;2023-03-14T04:02:43;3.10;;;2.58;;
38435;SDS011;24220;48.168;14.024;2023-03-14T04:05:14;3.85;;;2.50;;
38435;SDS011;24220;48.168;14.024;2023-03-14T04:07:51;3.70;;;2.00;;
38435;SDS011;24220;48.168;14.024;2023-03-14T04:10:34;4.20;;;2.40;;
38435;SDS011;24220;48.168;14.024;2023-03-14T04:13:04;4.95;;;3.05;;
38435;SDS011;24220;48.168;14.024;2023-03-14T04:15:34;4.25;;;2.53;;
38435;SDS011;24220;48.168;14.024;2023-03-14T04:18:08;3.40;;;2.30;;
38435;SDS011;24220;48.168;14.024;2023-03-14T04:20:53;4.72;;;3.42;;
38435;SDS011;24220;48.168;14.024;2023-03-14T04:23:29;5.70;;;3.10;;
38435;SDS011;24220;48.168;14.024;2023-03-14T04:26:02;5.45;;;3.08;;
38435;SDS011;24220;48.168;14.024;2023-03-14T04:28:36;3.65;;;2.22;;
38435;SDS011;24220;48.168;14.024;2023-03-14T04:33:51;2.97;;;1.73;;
38435;SDS011;24220;48.168;14.024;2023-03-14T04:36:22;3.35;;;1.85;;
38435;SDS011;24220;48.168;14.024;2023-03-14T04:38:50;2.38;;;1.85;;
38435;SDS011;24220;48.168;14.024;2023-03-14T04:41:19;1.35;;;1.23;;
38435;SDS011;24220;48.168;14.024;2023-03-14T04:46:35;1.10;;;1.00;;
38435;SDS011;24220;48.168;14.024;2023-03-14T04:49:02;1.20;;;0.90;;
38435;SDS011;24220;48.168;14.024;2023-03-14T04:51:32;1.10;;;1.00;;
38435;SDS011;24220;48.168;14.024;2023-03-14T04:54:03;1.17;;;0.90;;
38435;SDS011;24220;48.168;14.024;2023-03-14T04:56:30;0.90;;;0.70;;
38435;SDS011;24220;48.168;14.024;2023-03-14T04:58:58;0.65;;;0.65;;
38435;SDS011;24220;48.168;14.024;2023-03-14T05:01:30;1.08;;;0.90;;
38435;SDS011;24220;48.168;14.024;2023-03-14T05:03:59;0.70;;;0.70;;
38435;SDS011;24220;48.168;14.024;2023-03-14T05:06:26;1.00;;;1.00;;
38435;SDS011;24220;48.168;14.024;2023-03-14T05:08:54;1.40;;;1.27;;
38435;SDS011;24220;48.168;14.024;2023-03-14T05:11:22;1.30;;;1.20;;
38435;SDS011;24220;48.168;14.024;2023-03-14T05:13:49;0.88;;;0.88;;
38435;SDS011;24220;48.168;14.024;2023-03-14T05:16:20;2.70;;;1.02;;
38435;SDS011;24220;48.168;14.024;2023-03-14T05:18:48;1.63;;;1.30;;
38435;SDS011;24220;48.168;14.024;2023-03-14T05:21:16;1.17;;;1.02;;
38435;SDS011;24220;48.168;14.024;2023-03-14T05:23:46;1.95;;;1.10;;
38435;SDS011;24220;48.168;14.024;2023-03-14T05:26:19;1.13;;;1.02;;
38435;SDS011;24220;48.168;14.024;2023-03-14T05:28:53;2.35;;;1.40;;
38435;SDS011;24220;48.168;14.024;2023-03-14T05:31:20;1.70;;;1.20;;
38435;SDS011;24220;48.168;14.024;2023-03-14T05:33:50;1.52;;;1.25;;
38435;SDS011;24220;48.168;14.024;2023-03-14T05:36:18;2.20;;;1.13;;
38435;SDS011;24220;48.168;14.024;2023-03-14T05:38:48;1.77;;;1.00;;
38435;SDS011;24220;48.168;14.024;2023-03-14T05:41:16;1.70;;;1.02;;
38435;SDS011;24220;48.168;14.024;2023-03-14T05:43:44;1.55;;;1.00;;
38435;SDS011;24220;48.168;14.024;2023-03-14T05:46:18;2.53;;;1.37;;
38435;SDS011;24220;48.168;14.024;2023-03-14T05:48:48;2.20;;;1.60;;
38435;SDS011;24220;48.168;14.024;2023-03-14T05:51:20;1.75;;;1.30;;
38435;SDS011;24220;48.168;14.024;2023-03-14T05:53:50;1.58;;;1.30;;
38435;SDS011;24220;48.168;14.024;2023-03-14T05:56:18;2.15;;;1.45;;
38435;SDS011;24220;48.168;14.024;2023-03-14T05:58:48;2.05;;;1.38;;
38435;SDS011;24220;48.168;14.024;2023-03-14T06:01:20;1.70;;;1.40;;
38435;SDS011;24220;48.168;14.024;2023-03-14T06:03:50;2.00;;;1.35;;
38435;SDS011;24220;48.168;14.024;2023-03-14T06:06:23;1.70;;;1.27;;
38435;SDS011;24220;48.168;14.024;2023-03-14T06:08:51;1.98;;;1.13;;
38435;SDS011;24220;48.168;14.024;2023-03-14T06:11:23;3.10;;;1.10;;
38435;SDS011;24220;48.168;14.024;2023-03-14T06:13:53;1.67;;;1.00;;
38435;SDS011;24220;48.168;14.024;2023-03-14T06:16:31;1.25;;;1.15;;
38435;SDS011;24220;48.168;14.024;2023-03-14T06:19:05;2.05;;;1.25;;
38435;SDS011;24220;48.168;14.024;2023-03-14T06:21:37;1.95;;;1.20;;
38435;SDS011;24220;48.168;14.024;2023-03-14T06:24:07;1.55;;;1.00;;
38435;SDS011;24220;48.168;14.024;2023-03-14T06:26:39;2.35;;;1.30;;
38435;SDS011;24220;48.168;14.024;2023-03-14T06:29:15;1.17;;;1.08;;
38435;SDS011;24220;48.168;14.024;2023-03-14T06:31:48;1.98;;;1.20;;
38435;SDS011;24220;48.168;14.024;2023-03-14T06:34:21;1.13;;;1.02;;
38435;SDS011;24220;48.168;14.024;2023-03-14T06:36:50;1.67;;;1.13;;
38435;SDS011;24220;48.168;14.024;2023-03-14T06:39:25;1.10;;;0.90;;
38435;SDS011;24220;48.168;14.024;2023-03-14T06:41:56;0.80;;;0.80;;
38435;SDS011;24220;48.168;14.024;2023-03-14T06:44:25;2.40;;;1.10;;
38435;SDS011;24220;48.168;14.024;2023-03-14T06:46:58;0.95;;;0.77;;
38435;SDS011;24220;48.168;14.024;2023-03-14T06:49:28;1.13;;;0.70;;
38435;SDS011;24220;48.168;14.024;2023-03-14T06:52:03;1.90;;;1.00;;
38435;SDS011;24220;48.168;14.024;2023-03-14T06:54:34;1.10;;;1.00;;
38435;SDS011;24220;48.168;14.024;2023-03-14T06:57:02;1.02;;;0.90;;
38435;SDS011;24220;48.168;14.024;2023-03-14T06:59:30;1.02;;;0.88;;
38435;SDS011;24220;48.168;14.024;2023-03-14T07:02:05;2.67;;;0.80;;
38435;SDS011;24220;48.168;14.024;2023-03-14T07:04:35;11.20;;;7.70;;
38435;SDS011;24220;48.168;14.024;2023-03-14T07:07:17;6.82;;;6.13;;
38435;SDS011;24220;48.168;14.024;2023-03-14T07:09:48;3.35;;;2.53;;
38435;SDS011;24220;48.168;14.024;2023-03-14T07:12:16;3.45;;;1.60;;
38435;SDS011;24220;48.168;14.024;2023-03-14T07:14:45;3.90;;;2.13;;
38435;SDS011;24220;48.168;14.024;2023-03-14T07:17:14;2.50;;;1.55;;
38435;SDS011;24220;48.168;14.024;2023-03-14T07:19:42;2.10;;;1.42;;
38435;SDS011;24220;48.168;14.024;2023-03-14T07:22:13;3.13;;;1.52;;
38435;SDS011;24220;48.168;14.024;2023-03-14T07:24:43;1.92;;;1.20;;
38435;SDS011;24220;48.168;14.024;2023-03-14T07:27:11;1.98;;;1.48;;
38435;SDS011;24220;48.168;14.024;2023-03-14T07:29:48;2.72;;;2.35;;
38435;SDS011;24220;48.168;14.024;2023-03-14T07:32:19;2.92;;;1.70;;
38435;SDS011;24220;48.168;14.024;2023-03-14T07:34:47;2.75;;;1.45;;
38435;SDS011;24220;48.168;14.024;2023-03-14T07:37:19;1.77;;;1.20;;
38435;SDS011;24220;48.168;14.024;2023-03-14T07:39:52;2.60;;;1.15;;
38435;SDS011;24220;48.168;14.024;2023-03-14T07:42:26;1.73;;;1.20;;
38435;SDS011;24220;48.168;14.024;2023-03-14T07:44:57;3.05;;;1.50;;
38435;SDS011;24220;48.168;14.024;2023-03-14T07:47:33;3.63;;;1.63;;
38435;SDS011;24220;48.168;14.024;2023-03-14T07:50:04;2.40;;;1.33;;
38435;SDS011;24220;48.168;14.024;2023-03-14T07:52:38;3.17;;;1.40;;
38435;SDS011;24220;48.168;14.024;2023-03-14T07:57:43;1.48;;;0.93;;
38435;SDS011;24220;48.168;14.024;2023-03-14T08:00:16;3.42;;;1.02;;
38435;SDS011;24220;48.168;14.024;2023-03-14T08:02:47;1.45;;;1.20;;
38435;SDS011;24220;48.168;14.024;2023-03-14T08:05:20;1.58;;;1.33;;
38435;SDS011;24220;48.168;14.024;2023-03-14T08:07:53;2.60;;;1.10;;
38435;SDS011;24220;48.168;14.024;2023-03-14T08:10:25;1.58;;;0.80;;
38435;SDS011;24220;48.168;14.024;2023-03-14T08:12:56;1.02;;;0.80;;
38435;SDS011;24220;48.168;14.024;2023-03-14T08:15:28;2.17;;;1.00;;
38435;SDS011;24220;48.168;14.024;2023-03-14T08:17:57;1.42;;;0.90;;
38435;SDS011;24220;48.168;14.024;2023-03-14T08:20:26;1.05;;;0.98;;
38435;SDS011;24220;48.168;14.024;2023-03-14T08:23:01;2.55;;;1.10;;
38435;SDS011;24220;48.168;14.024;2023-03-14T08:25:38;1.00;;;1.00;;
38435;SDS011;24220;48.168;14.024;2023-03-14T08:28:18;2.42;;;1.02;;
38435;SDS011;24220;48.168;14.024;2023-03-14T08:30:48;0.80;;;0.80;;
38435;SDS011;24220;48.168;14.024;2023-03-14T08:33:16;1.85;;;0.98;;
38435;SDS011;24220;48.168;14.024;2023-03-14T08:35:49;2.42;;;1.45;;
38435;SDS011;24220;48.168;14.024;2023-03-14T08:38:22;1.65;;;0.90;;
38435;SDS011;24220;48.168;14.024;2023-03-14T08:40:54;1.38;;;1.00;;
38435;SDS011;24220;48.168;14.024;2023-03-14T08:43:29;1.77;;;0.73;;
38435;SDS011;24220;48.168;14.024;2023-03-14T08:46:02;1.52;;;0.90;;
38435;SDS011;24220;48.168;14.024;2023-03-14T08:48:34;1.50;;;0.88;;
38435;SDS011;24220;48.168;14.024;2023-03-14T08:51:11;1.13;;;0.95;;
38435;SDS011;24220;48.168;14.024;2023-03-14T08:53:42;1.55;;;0.80;;
38435;SDS011;24220;48.168;14.024;2023-03-14T08:56:10;1.70;;;1.17;;
38435;SDS011;24220;48.168;14.024;2023-03-14T08:58:38;2.25;;;1.05;;
38435;SDS011;24220;48.168;14.024;2023-03-14T09:01:07;1.27;;;0.73;;
38435;SDS011;24220;48.168;14.024;2023-03-14T09:03:40;1.60;;;1.00;;
38435;SDS011;24220;48.168;14.024;2023-03-14T09:06:12;2.53;;;1.17;;
38435;SDS011;24220;48.168;14.024;2023-03-14T09:08:40;2.92;;;0.70;;
38435;SDS011;24220;48.168;14.024;2023-03-14T09:11:13;2.50;;;1.10;;
38435;SDS011;24220;48.168;14.024;2023-03-14T09:13:41;1.92;;;0.98;;
38435;SDS011;24220;48.168;14.024;2023-03-14T09:16:16;2.65;;;1.00;;
38435;SDS011;24220;48.168;14.024;2023-03-14T09:18:54;3.78;;;1.00;;
38435;SDS011;24220;48.168;14.024;2023-03-14T09:21:28;2.38;;;1.00;;
38435;SDS011;24220;48.168;14.024;2023-03-14T09:24:00;0.70;;;0.70;;
38435;SDS011;24220;48.168;14.024;2023-03-14T09:26:28;2.22;;;0.80;;
38435;SDS011;24220;48.168;14.024;2023-03-14T09:28:59;2.03;;;1.10;;
38435;SDS011;24220;48.168;14.024;2023-03-14T09:31:37;2.20;;;1.30;;
38435;SDS011;24220;48.168;14.024;2023-03-14T09:34:09;2.88;;;2.15;;
38435;SDS011;24220;48.168;14.024;2023-03-14T09:36:51;2.22;;;1.50;;
38435;SDS011;24220;48.168;14.024;2023-03-14T09:39:21;2.35;;;1.60;;
38435;SDS011;24220;48.168;14.024;2023-03-14T09:41:51;2.92;;;1.73;;
38435;SDS011;24220;48.168;14.024;2023-03-14T09:44:22;3.60;;;1.60;;
38435;SDS011;24220;48.168;14.024;2023-03-14T09:46:54;2.33;;;1.67;;
38435;SDS011;24220;48.168;14.024;2023-03-14T09:49:29;3.22;;;1.50;;
38435;SDS011;24220;48.168;14.024;2023-03-14T09:52:04;2.25;;;1.88;;
38435;SDS011;24220;48.168;14.024;2023-03-14T09:54:39;2.20;;;1.00;;
38435;SDS011;24220;48.168;14.024;2023-03-14T09:57:18;1.33;;;1.00;;
38435;SDS011;24220;48.168;14.024;2023-03-14T09:59:49;1.10;;;1.00;;
38435;SDS011;24220;48.168;14.024;2023-03-14T10:02:25;2.85;;;1.60;;
38435;SDS011;24220;48.168;14.024;2023-03-14T10:05:00;1.48;;;1.15;;
38435;SDS011;24220;48.168;14.024;2023-03-14T10:07:35;2.55;;;1.73;;
38435;SDS011;24220;48.168;14.024;2023-03-14T10:10:08;2.88;;;1.15;;
38435;SDS011;24220;48.168;14.024;2023-03-14T10:12:46;2.30;;;1.40;;
38435;SDS011;24220;48.168;14.024;2023-03-14T10:15:28;1.02;;;1.02;;
38435;SDS011;24220;48.168;14.024;2023-03-14T10:18:02;3.05;;;1.60;;
38435;SDS011;24220;48.168;14.024;2023-03-14T10:20:40;2.67;;;1.10;;
38435;SDS011;24220;48.168;14.024;2023-03-14T10:28:45;1.25;;;1.00;;
38435;SDS011;24220;48.168;14.024;2023-03-14T10:31:16;2.45;;;1.20;;
38435;SDS011;24220;48.168;14.024;2023-03-14T10:34:01;1.10;;;1.00;;
38435;SDS011;24220;48.168;14.024;2023-03-14T10:36:31;1.95;;;1.83;;
38435;SDS011;24220;48.168;14.024;2023-03-14T10:41:50;2.67;;;1.80;;
38435;SDS011;24220;48.168;14.024;2023-03-14T10:44:25;1.88;;;1.20;;
38435;SDS011;24220;48.168;14.024;2023-03-14T10:46:58;2.88;;;0.95;;
38435;SDS011;24220;48.168;14.024;2023-03-14T10:49:29;1.20;;;1.10;;
38435;SDS011;24220;48.168;14.024;2023-03-14T10:52:14;2.88;;;1.10;;
38435;SDS011;24220;48.168;14.024;2023-03-14T10:55:10;1.75;;;1.00;;
38435;SDS011;24220;48.168;14.024;2023-03-14T10:57:41;1.75;;;1.17;;
38435;SDS011;24220;48.168;14.024;2023-03-14T11:00:14;1.70;;;1.60;;
38435;SDS011;24220;48.168;14.024;2023-03-14T11:08:11;14.02;;;10.13;;
38435;SDS011;24220;48.168;14.024;2023-03-14T11:14:05;3.88;;;2.90;;
38435;SDS011;24220;48.168;14.024;2023-03-14T11:16:51;2.15;;;1.50;;
38435;SDS011;24220;48.168;14.024;2023-03-14T11:28:17;2.05;;;1.35;;
38435;SDS011;24220;48.168;14.024;2023-03-14T11:33:53;7.53;;;6.35;;
38435;SDS011;24220;48.168;14.024;2023-03-14T11:36:38;6.20;;;5.63;;
38435;SDS011;24220;48.168;14.024;2023-03-14T11:39:12;1.67;;;1.50;;
38435;SDS011;24220;48.168;14.024;2023-03-14T11:41:46;0.80;;;0.80;;
38435;SDS011;24220;48.168;14.024;2023-03-14T11:44:20;0.80;;;0.80;;
38435;SDS011;24220;48.168;14.024;2023-03-14T11:52:20;0.60;;;0.60;;
38435;SDS011;24220;48.168;14.024;2023-03-14T11:54:55;1.13;;;0.70;;
38435;SDS011;24220;48.168;14.024;2023-03-14T11:57:25;0.90;;;0.90;;
38435;SDS011;24220;48.168;14.024;2023-03-14T12:02:59;1.20;;;1.00;;
38435;SDS011;24220;48.168;14.024;2023-03-14T12:11:15;1.20;;;1.10;;
38435;SDS011;24220;48.168;14.024;2023-03-14T12:13:55;0.60;;;0.60;;
38435;SDS011;24220;48.168;14.024;2023-03-14T12:16:30;0.60;;;0.60;;
38435;SDS011;24220;48.168;14.024;2023-03-14T12:24:29;0.60;;;0.60;;
38435;SDS011;24220;48.168;14.024;2023-03-14T12:27:04;1.08;;;0.60;;
38435;SDS011;24220;48.168;14.024;2023-03-14T12:29:33;0.50;;;0.50;;
38435;SDS011;24220;48.168;14.024;2023-03-14T12:32:24;0.50;;;0.50;;
38435;SDS011;24220;48.168;14.024;2023-03-14T12:34:53;0.40;;;0.40;;
38435;SDS011;24220;48.168;14.024;2023-03-14T12:40:10;1.20;;;0.55;;
38435;SDS011;24220;48.168;14.024;2023-03-14T12:42:58;0.88;;;0.60;;
38435;SDS011;24220;48.168;14.024;2023-03-14T12:45:32;0.80;;;0.80;;
38435;SDS011;24220;48.168;14.024;2023-03-14T12:50:45;1.25;;;0.52;;
38435;SDS011;24220;48.168;14.024;2023-03-14T13:02:22;0.35;;;0.35;;
38435;SDS011;24220;48.168;14.024;2023-03-14T13:05:05;0.60;;;0.50;;
38435;SDS011;24220;48.168;14.024;2023-03-14T13:18:15;0.50;;;0.50;;
38435;SDS011;24220;48.168;14.024;2023-03-14T13:21:22;0.77;;;0.55;;
38435;SDS011;24220;48.168;14.024;2023-03-14T13:24:01;0.50;;;0.50;;
38435;SDS011;24220;48.168;14.024;2023-03-14T13:26:42;0.40;;;0.40;;
38435;SDS011;24220;48.168;14.024;2023-03-14T13:31:51;0.75;;;0.40;;
38435;SDS011;24220;48.168;14.024;2023-03-14T13:34:20;0.65;;;0.50;;
38435;SDS011;24220;48.168;14.024;2023-03-14T13:36:51;0.43;;;0.43;;
38435;SDS011;24220;48.168;14.024;2023-03-14T13:39:22;0.50;;;0.50;;
38435;SDS011;24220;48.168;14.024;2023-03-14T13:41:57;0.70;;;0.60;;
38435;SDS011;24220;48.168;14.024;2023-03-14T13:44:32;1.27;;;0.60;;
38435;SDS011;24220;48.168;14.024;2023-03-14T13:47:17;0.50;;;0.50;;
38435;SDS011;24220;48.168;14.024;2023-03-14T13:49:46;0.50;;;0.50;;
38435;SDS011;24220;48.168;14.024;2023-03-14T13:52:23;0.60;;;0.60;;
38435;SDS011;24220;48.168;14.024;2023-03-14T13:54:54;0.75;;;0.60;;
38435;SDS011;24220;48.168;14.024;2023-03-14T13:57:26;0.88;;;0.50;;
38435;SDS011;24220;48.168;14.024;2023-03-14T13:59:58;0.57;;;0.52;;
38435;SDS011;24220;48.168;14.024;2023-03-14T14:02:44;0.60;;;0.60;;
38435;SDS011;24220;48.168;14.024;2023-03-14T14:05:13;0.98;;;0.60;;
38435;SDS011;24220;48.168;14.024;2023-03-14T14:07:42;1.42;;;0.70;;
38435;SDS011;24220;48.168;14.024;2023-03-14T14:10:11;0.50;;;0.50;;
38435;SDS011;24220;48.168;14.024;2023-03-14T14:12:46;0.63;;;0.60;;
38435;SDS011;24220;48.168;14.024;2023-03-14T14:15:32;0.60;;;0.60;;
38435;SDS011;24220;48.168;14.024;2023-03-14T14:18:20;0.85;;;0.80;;
38435;SDS011;24220;48.168;14.024;2023-03-14T14:20:58;0.65;;;0.50;;
38435;SDS011;24220;48.168;14.024;2023-03-14T14:23:40;1.08;;;0.60;;
38435;SDS011;24220;48.168;14.024;2023-03-14T14:26:13;0.40;;;0.40;;
38435;SDS011;24220;48.168;14.024;2023-03-14T14:28:45;0.60;;;0.60;;
38435;SDS011;24220;48.168;14.024;2023-03-14T14:41:50;1.20;;;0.88;;
38435;SDS011;24220;48.168;14.024;2023-03-14T14:44:26;1.40;;;1.30;;
38435;SDS011;24220;48.168;14.024;2023-03-14T14:47:04;1.85;;;1.60;;
38435;SDS011;24220;48.168;14.024;2023-03-14T14:49:34;1.20;;;1.10;;
38435;SDS011;24220;48.168;14.024;2023-03-14T14:52:17;2.92;;;1.10;;
38435;SDS011;24220;48.168;14.024;2023-03-14T14:54:51;2.85;;;2.28;;
38435;SDS011;24220;48.168;14.024;2023-03-14T14:57:26;2.60;;;2.00;;
38435;SDS011;24220;48.168;14.024;2023-03-14T15:02:49;1.67;;;1.52;;
38435;SDS011;24220;48.168;14.024;2023-03-14T15:05:31;2.95;;;2.22;;
38435;SDS011;24220;48.168;14.024;2023-03-14T15:08:02;2.97;;;2.20;;
38435;SDS011;24220;48.168;14.024;2023-03-14T15:10:35;3.00;;;2.50;;
38435;SDS011;24220;48.168;14.024;2023-03-14T15:13:11;4.00;;;3.15;;
38435;SDS011;24220;48.168;14.024;2023-03-14T15:15:40;2.92;;;2.63;;
38435;SDS011;24220;48.168;14.024;2023-03-14T15:18:17;2.05;;;1.80;;
38435;SDS011;24220;48.168;14.024;2023-03-14T15:20:47;1.45;;;1.20;;
38435;SDS011;24220;48.168;14.024;2023-03-14T15:23:22;1.23;;;1.13;;
38435;SDS011;24220;48.168;14.024;2023-03-14T15:25:52;1.85;;;1.35;;
38435;SDS011;24220;48.168;14.024;2023-03-14T15:28:24;2.03;;;1.83;;
38435;SDS011;24220;48.168;14.024;2023-03-14T15:30:54;3.10;;;1.88;;
38435;SDS011;24220;48.168;14.024;2023-03-14T15:33:26;4.43;;;2.90;;
38435;SDS011;24220;48.168;14.024;2023-03-14T15:35:58;2.55;;;2.30;;
38435;SDS011;24220;48.168;14.024;2023-03-14T15:38:33;3.78;;;2.78;;
38435;SDS011;24220;48.168;14.024;2023-03-14T15:41:03;2.60;;;2.10;;
38435;SDS011;24220;48.168;14.024;2023-03-14T15:43:31;2.10;;;1.90;;
38435;SDS011;24220;48.168;14.024;2023-03-14T15:46:00;1.67;;;1.50;;
38435;SDS011;24220;48.168;14.024;2023-03-14T15:48:39;2.40;;;1.77;;
38435;SDS011;24220;48.168;14.024;2023-03-14T15:51:12;3.05;;;1.60;;
38435;SDS011;24220;48.168;14.024;2023-03-14T15:53:43;1.50;;;1.40;;
38435;SDS011;24220;48.168;14.024;2023-03-14T15:56:13;2.53;;;1.92;;
38435;SDS011;24220;48.168;14.024;2023-03-14T15:58:48;2.63;;;2.08;;
38435;SDS011;24220;48.168;14.024;2023-03-14T16:01:18;3.05;;;1.52;;
38435;SDS011;24220;48.168;14.024;2023-03-14T16:03:47;2.70;;;1.45;;
38435;SDS011;24220;48.168;14.024;2023-03-14T16:06:15;2.80;;;1.80;;
38435;SDS011;24220;48.168;14.024;2023-03-14T16:08:45;2.53;;;1.33;;
38435;SDS011;24220;48.168;14.024;2023-03-14T16:11:14;2.25;;;1.42;;
38435;SDS011;24220;48.168;14.024;2023-03-14T16:13:47;1.33;;;1.20;;
38435;SDS011;24220;48.168;14.024;2023-03-14T16:16:17;1.23;;;0.85;;
38435;SDS011;24220;48.168;14.024;2023-03-14T16:18:48;0.70;;;0.70;;
38435;SDS011;24220;48.168;14.024;2023-03-14T16:21:19;0.70;;;0.70;;
38435;SDS011;24220;48.168;14.024;2023-03-14T16:23:47;1.02;;;0.80;;
38435;SDS011;24220;48.168;14.024;2023-03-14T16:26:16;1.00;;;0.80;;
38435;SDS011;24220;48.168;14.024;2023-03-14T16:28:46;1.20;;;1.10;;
38435;SDS011;24220;48.168;14.024;2023-03-14T16:31:22;1.20;;;1.10;;
38435;SDS011;24220;48.168;14.024;2023-03-14T16:33:55;1.10;;;1.00;;
38435;SDS011;24220;48.168;14.024;2023-03-14T16:36:23;1.35;;;1.08;;
38435;SDS011;24220;48.168;14.024;2023-03-14T16:38:51;0.90;;;0.90;;
38435;SDS011;24220;48.168;14.024;2023-03-14T16:41:23;0.70;;;0.70;;
38435;SDS011;24220;48.168;14.024;2023-03-14T16:43:57;1.00;;;0.80;;
38435;SDS011;24220;48.168;14.024;2023-03-14T16:46:26;0.88;;;0.60;;
38435;SDS011;24220;48.168;14.024;2023-03-14T16:48:57;0.55;;;0.55;;
38435;SDS011;24220;48.168;14.024;2023-03-14T16:51:33;0.50;;;0.50;;
38435;SDS011;24220;48.168;14.024;2023-03-14T16:54:05;0.52;;;0.40;;